createdAt,value
2018-12-27T00:00:15.608Z,115.33
2018-12-27T00:02:44.851Z,118.23
2018-12-27T00:05:14.197Z,102.27
2018-12-27T00:07:43.674Z,109.20
2018-12-27T00:10:13.022Z,112.80
2018-12-27T00:12:42.659Z,123.23
2018-12-27T00:15:13.890Z,111.83
2018-12-27T00:17:43.295Z,112.27
2018-12-27T00:20:12.926Z,116.97
2018-12-27T00:22:42.433Z,121.67
2018-12-27T00:25:11.880Z,115.33
2018-12-27T00:27:41.277Z,109.23
2018-12-27T00:30:10.922Z,114.63
2018-12-27T00:32:40.499Z,113.67
2018-12-27T00:35:10.012Z,112.37
2018-12-27T00:37:39.872Z,118.10
2018-12-27T00:40:09.391Z,112.17
2018-12-27T00:42:39.031Z,113.00
2018-12-27T00:45:08.544Z,106.80
2018-12-27T00:47:38.294Z,111.37
2018-12-27T00:50:07.863Z,115.37
2018-12-27T00:52:37.660Z,115.53
2018-12-27T00:55:07.202Z,111.03
2018-12-27T00:57:36.752Z,114.37
2018-12-27T01:00:06.261Z,111.40
2018-12-27T01:02:55.084Z,110.40
2018-12-27T01:05:24.774Z,119.37
2018-12-27T01:07:54.326Z,115.67
2018-12-27T01:10:24.075Z,109.80
2018-12-27T01:12:53.760Z,115.73
2018-12-27T01:15:23.378Z,111.17
2018-12-27T01:17:53.064Z,110.20
2018-12-27T01:20:22.675Z,111.70
2018-12-27T01:22:52.188Z,110.13
2018-12-27T01:25:21.713Z,112.83
2018-12-27T01:27:51.398Z,117.13
2018-12-27T01:30:21.016Z,109.37
2018-12-27T01:32:50.603Z,114.07
2018-12-27T01:35:20.326Z,118.60
2018-12-27T01:37:49.924Z,118.47
2018-12-27T01:40:19.480Z,118.73
2018-12-27T01:42:49.231Z,124.30
2018-12-27T01:45:18.864Z,118.70
2018-12-27T01:47:48.390Z,117.20
2018-12-27T01:50:18.752Z,116.57
2018-12-27T01:52:48.329Z,120.23
2018-12-27T01:55:17.847Z,116.00
2018-12-27T01:57:47.456Z,109.07
2018-12-27T02:00:17.394Z,116.30
2018-12-27T02:02:46.982Z,115.23
2018-12-27T02:05:16.662Z,121.17
2018-12-27T02:07:46.295Z,123.97
2018-12-27T02:10:15.864Z,116.83
2018-12-27T02:12:45.500Z,128.40
2018-12-27T02:15:15.277Z,108.80
2018-12-27T02:17:44.902Z,118.03
2018-12-27T02:20:14.530Z,123.77
2018-12-27T02:22:44.087Z,116.13
2018-12-27T02:25:13.707Z,130.37
2018-12-27T02:27:43.270Z,125.13
2018-12-27T02:30:13.096Z,126.20
2018-12-27T02:32:43.454Z,128.83
2018-12-27T02:35:13.651Z,122.47
2018-12-27T02:37:43.279Z,126.27
2018-12-27T02:40:12.911Z,125.23
2018-12-27T02:42:42.474Z,120.80
2018-12-27T02:45:12.010Z,122.07
2018-12-27T02:47:41.735Z,118.77
2018-12-27T02:50:11.551Z,121.93
2018-12-27T02:52:41.077Z,117.17
2018-12-27T02:55:10.879Z,116.57
2018-12-27T02:57:40.511Z,117.67
2018-12-27T03:00:10.106Z,116.73
2018-12-27T03:02:39.812Z,122.20
2018-12-27T03:05:09.403Z,123.30
2018-12-27T03:07:38.947Z,124.63
2018-12-27T03:10:08.552Z,130.70
2018-12-27T03:12:38.209Z,128.57
2018-12-27T03:15:08.076Z,120.50
2018-12-27T03:17:37.909Z,120.17
2018-12-27T03:20:07.433Z,118.90
2018-12-27T03:22:36.983Z,119.53
2018-12-27T03:25:06.491Z,123.83
2018-12-27T03:27:36.135Z,131.87
2018-12-27T03:30:05.977Z,127.07
2018-12-27T03:32:35.788Z,130.23
2018-12-27T03:35:05.305Z,128.57
2018-12-27T03:37:34.932Z,127.97
2018-12-27T03:40:04.450Z,120.90
2018-12-27T03:42:34.002Z,110.83
2018-12-27T03:45:03.515Z,112.83
2018-12-27T03:47:33.075Z,111.40
2018-12-27T03:50:02.588Z,104.13
2018-12-27T03:52:32.239Z,113.23
2018-12-27T03:55:01.759Z,101.53
2018-12-27T03:57:31.318Z,108.30
2018-12-27T04:00:00.905Z,107.40
2018-12-27T04:02:30.509Z,109.33
2018-12-27T04:05:00.297Z,114.50
2018-12-27T04:07:30.347Z,107.90
2018-12-27T04:10:00.302Z,103.53
2018-12-27T04:12:29.898Z,106.53
2018-12-27T04:15:06.226Z,96.20
2018-12-27T04:17:35.740Z,104.30
2018-12-27T04:20:05.481Z,111.63
2018-12-27T04:22:34.918Z,108.70
2018-12-27T04:25:05.114Z,105.50
2018-12-27T04:27:34.546Z,107.83
2018-12-27T04:30:05.283Z,104.97
2018-12-27T04:32:35.391Z,99.40
2018-12-27T04:35:05.141Z,110.10
2018-12-27T04:37:34.658Z,103.43
2018-12-27T04:40:05.081Z,114.40
2018-12-27T04:42:35.152Z,98.13
2018-12-27T04:45:05.146Z,104.57
2018-12-27T04:47:53.838Z,111.60
2018-12-27T04:50:26.552Z,116.97
2018-12-27T04:52:56.068Z,112.77
2018-12-27T04:55:25.705Z,106.20
2018-12-27T04:58:14.410Z,112.27
2018-12-27T05:00:43.894Z,99.13
2018-12-27T05:03:13.314Z,94.53
2018-12-27T05:05:55.289Z,92.77
2018-12-27T05:08:24.764Z,104.37
2018-12-27T05:10:54.233Z,106.03
2018-12-27T05:13:23.643Z,92.87
2018-12-27T05:15:53.117Z,100.47
2018-12-27T05:18:22.652Z,100.43
2018-12-27T05:20:52.055Z,97.63
2018-12-27T05:23:21.445Z,106.30
2018-12-27T05:25:50.805Z,91.17
2018-12-27T05:28:20.298Z,91.63
2018-12-27T05:30:49.651Z,97.43
2018-12-27T05:33:19.051Z,97.80
2018-12-27T05:35:48.410Z,86.50
2018-12-27T05:38:17.796Z,90.97
2018-12-27T05:40:47.151Z,91.60
2018-12-27T05:43:37.406Z,93.90
2018-12-27T05:46:07.051Z,98.57
2018-12-27T05:48:37.972Z,93.87
2018-12-27T05:51:07.489Z,97.10
2018-12-27T05:53:36.885Z,96.07
2018-12-27T05:56:06.419Z,99.97
2018-12-27T05:58:35.893Z,90.40
2018-12-27T06:01:05.395Z,98.37
2018-12-27T06:03:34.799Z,103.03
2018-12-27T06:06:04.321Z,91.13
2018-12-27T06:08:33.870Z,103.90
2018-12-27T06:11:03.424Z,91.10
2018-12-27T06:13:32.907Z,84.53
2018-12-27T06:16:02.276Z,83.83
2018-12-27T06:18:31.742Z,87.50
2018-12-27T06:21:01.130Z,89.50
2018-12-27T06:23:30.521Z,88.23
2018-12-27T06:25:59.872Z,92.33
2018-12-27T06:28:29.333Z,93.30
2018-12-27T06:30:58.687Z,90.70
2018-12-27T06:33:28.239Z,90.97
2018-12-27T06:35:57.609Z,89.77
2018-12-27T06:38:27.077Z,88.20
2018-12-27T06:40:56.506Z,87.13
2018-12-27T06:43:25.967Z,90.10
2018-12-27T06:45:55.448Z,89.70
2018-12-27T06:48:24.914Z,92.33
2018-12-27T06:50:54.278Z,88.57
2018-12-27T06:53:23.867Z,83.97
2018-12-27T06:55:53.273Z,90.77
2018-12-27T06:58:22.658Z,92.33
2018-12-27T07:00:52.225Z,92.10
2018-12-27T07:03:21.727Z,85.10
2018-12-27T07:05:51.453Z,89.43
2018-12-27T07:08:20.852Z,86.50
2018-12-27T07:10:50.449Z,86.97
2018-12-27T07:13:19.836Z,90.80
2018-12-27T07:15:51.135Z,90.73
2018-12-27T07:18:21.036Z,90.13
2018-12-27T07:20:50.526Z,83.10
2018-12-27T07:23:21.633Z,94.13
2018-12-27T07:25:51.112Z,88.77
2018-12-27T07:28:20.511Z,87.83
2018-12-27T07:30:49.899Z,89.73
2018-12-27T07:33:19.456Z,97.67
2018-12-27T07:35:49.327Z,92.00
2018-12-27T07:38:18.725Z,89.83
2018-12-27T07:40:48.189Z,84.03
2018-12-27T07:43:17.765Z,97.17
2018-12-27T07:45:47.230Z,89.37
2018-12-27T07:48:16.602Z,95.30
2018-12-27T07:50:46.039Z,87.53
2018-12-27T07:53:16.201Z,94.63
2018-12-27T07:55:45.718Z,94.70
2018-12-27T07:58:15.149Z,90.53
2018-12-27T08:00:44.606Z,94.40
2018-12-27T08:03:14.303Z,93.47
2018-12-27T08:05:43.749Z,98.33
2018-12-27T08:08:13.200Z,91.83
2018-12-27T08:10:42.681Z,90.63
2018-12-27T08:13:12.194Z,94.63
2018-12-27T08:15:42.134Z,87.17
2018-12-27T08:18:11.662Z,101.57
2018-12-27T08:20:41.631Z,92.07
2018-12-27T08:23:11.039Z,100.73
2018-12-27T08:25:40.793Z,91.43
2018-12-27T08:28:10.291Z,106.50
2018-12-27T08:30:39.762Z,99.07
2018-12-27T08:33:09.165Z,96.77
2018-12-27T08:35:38.550Z,100.23
2018-12-27T08:38:07.997Z,98.23
2018-12-27T08:40:37.406Z,105.67
2018-12-27T08:43:06.887Z,92.77
2018-12-27T08:45:36.351Z,98.97
2018-12-27T08:48:05.883Z,103.97
2018-12-27T08:50:35.303Z,84.33
2018-12-27T08:53:04.755Z,102.10
2018-12-27T08:55:34.211Z,100.00
2018-12-27T08:58:03.799Z,98.33
2018-12-27T09:00:33.407Z,86.57
2018-12-27T09:03:02.807Z,86.13
2018-12-27T09:05:32.458Z,97.33
2018-12-27T09:08:01.927Z,91.10
2018-12-27T09:10:31.290Z,93.90
2018-12-27T09:13:00.689Z,95.73
2018-12-27T09:15:30.172Z,87.00
2018-12-27T09:17:59.617Z,89.30
2018-12-27T09:20:29.099Z,81.53
2018-12-27T09:22:58.563Z,87.43
2018-12-27T09:25:28.025Z,88.53
2018-12-27T09:27:57.495Z,88.73
2018-12-27T09:30:27.020Z,88.60
2018-12-27T09:32:58.387Z,74.90
2018-12-27T09:35:27.806Z,78.23
2018-12-27T09:37:57.412Z,77.53
2018-12-27T09:40:26.765Z,74.23
2018-12-27T09:42:56.219Z,70.00
2018-12-27T09:45:25.657Z,78.43
2018-12-27T09:47:56.612Z,74.50
2018-12-27T09:50:26.038Z,68.43
2018-12-27T09:52:55.593Z,72.93
2018-12-27T09:55:24.965Z,68.57
2018-12-27T09:57:54.604Z,69.07
2018-12-27T10:00:24.185Z,67.97
2018-12-27T10:02:53.690Z,68.73
2018-12-27T10:05:23.131Z,67.87
2018-12-27T10:07:57.414Z,68.07
2018-12-27T10:10:23.649Z,70.90
2018-12-27T10:12:53.240Z,74.13
2018-12-27T10:15:22.706Z,73.33
2018-12-27T10:17:52.105Z,73.23
2018-12-27T10:20:21.749Z,69.37
2018-12-27T10:22:51.207Z,70.23
2018-12-27T10:25:20.681Z,73.07
2018-12-27T10:27:50.098Z,70.83
2018-12-27T10:30:21.126Z,65.13
2018-12-27T10:32:50.576Z,64.13
2018-12-27T10:35:20.075Z,69.93
2018-12-27T10:37:49.558Z,70.17
2018-12-27T10:40:19.020Z,68.40
2018-12-27T10:42:48.486Z,66.40
2018-12-27T10:45:17.969Z,59.70
2018-12-27T10:47:47.438Z,63.80
2018-12-27T10:50:16.831Z,64.00
2018-12-27T10:52:46.298Z,68.47
2018-12-27T10:55:15.820Z,68.60
2018-12-27T10:57:46.803Z,63.20
2018-12-27T11:00:16.333Z,63.17
2018-12-27T11:02:45.780Z,58.20
2018-12-27T11:05:15.197Z,60.43
2018-12-27T11:07:44.634Z,57.40
2018-12-27T11:10:14.199Z,64.33
2018-12-27T11:12:43.915Z,56.97
2018-12-27T11:15:13.313Z,60.23
2018-12-27T11:17:43.124Z,55.63
2018-12-27T11:20:12.515Z,56.93
2018-12-27T11:22:42.042Z,54.13
2018-12-27T11:25:11.594Z,52.57
2018-12-27T11:27:41.052Z,54.03
2018-12-27T11:30:10.783Z,54.60
2018-12-27T11:32:40.975Z,51.63
2018-12-27T11:35:10.360Z,56.40
2018-12-27T11:37:52.570Z,51.33
2018-12-27T11:40:21.968Z,55.73
2018-12-27T11:42:51.372Z,56.33
2018-12-27T11:45:20.955Z,56.60
2018-12-27T11:47:50.500Z,55.73
2018-12-27T11:50:19.988Z,54.50
2018-12-27T11:52:49.374Z,53.33
2018-12-27T11:55:18.768Z,54.93
2018-12-27T11:57:48.292Z,53.20
2018-12-27T12:00:17.854Z,55.90
2018-12-27T12:02:47.348Z,51.73
2018-12-27T12:05:16.741Z,53.13
2018-12-27T12:07:46.200Z,55.90
2018-12-27T12:10:15.735Z,60.93
2018-12-27T12:12:45.372Z,60.50
2018-12-27T12:15:14.830Z,49.47
2018-12-27T12:17:44.220Z,49.73
2018-12-27T12:20:13.926Z,52.53
2018-12-27T12:22:44.969Z,51.73
2018-12-27T12:25:14.524Z,51.57
2018-12-27T12:27:43.924Z,51.53
2018-12-27T12:30:13.804Z,48.43
2018-12-27T12:32:43.298Z,49.03
2018-12-27T12:35:12.693Z,52.43
2018-12-27T12:37:42.438Z,45.83
2018-12-27T12:40:12.148Z,48.93
2018-12-27T12:42:43.157Z,49.43
2018-12-27T12:45:12.625Z,50.07
2018-12-27T12:47:42.100Z,49.97
2018-12-27T12:50:11.635Z,46.60
2018-12-27T12:52:41.108Z,49.17
2018-12-27T12:55:10.556Z,47.63
2018-12-27T12:57:40.199Z,45.40
2018-12-27T13:00:10.463Z,50.93
2018-12-27T13:02:39.863Z,52.57
2018-12-27T13:05:09.399Z,48.97
2018-12-27T13:07:38.955Z,46.53
2018-12-27T13:10:08.552Z,45.63
2018-12-27T13:12:38.125Z,48.67
2018-12-27T13:15:07.825Z,48.60
2018-12-27T13:17:37.219Z,48.00
2018-12-27T13:20:08.425Z,50.07
2018-12-27T13:22:38.006Z,49.70
2018-12-27T13:25:07.559Z,49.20
2018-12-27T13:27:36.950Z,48.93
2018-12-27T13:30:08.858Z,47.27
2018-12-27T13:32:38.258Z,50.47
2018-12-27T13:35:07.784Z,51.93
2018-12-27T13:37:37.221Z,47.53
2018-12-27T13:40:07.667Z,46.13
2018-12-27T13:42:37.133Z,51.10
2018-12-27T13:45:07.957Z,54.17
2018-12-27T13:47:37.567Z,47.33
2018-12-27T13:50:08.183Z,48.57
2018-12-27T13:52:37.755Z,47.40
2018-12-27T13:55:07.361Z,45.13
2018-12-27T13:57:36.931Z,46.87
2018-12-27T14:00:10.724Z,46.63
2018-12-27T14:02:40.236Z,45.87
2018-12-27T14:05:09.784Z,46.57
2018-12-27T14:07:39.352Z,50.17
2018-12-27T14:10:08.966Z,44.83
2018-12-27T14:12:38.433Z,47.10
2018-12-27T14:15:08.307Z,44.97
2018-12-27T14:17:37.763Z,44.57
2018-12-27T14:20:08.414Z,43.93
2018-12-27T14:22:37.808Z,47.10
2018-12-27T14:25:08.745Z,47.47
2018-12-27T14:27:38.176Z,44.03
2018-12-27T14:30:08.801Z,48.80
2018-12-27T14:32:41.365Z,45.50
2018-12-27T14:35:10.898Z,47.47
2018-12-27T14:37:40.362Z,45.23
2018-12-27T14:40:09.999Z,45.83
2018-12-27T14:42:39.525Z,44.43
2018-12-27T14:45:09.050Z,50.20
2018-12-27T14:47:38.454Z,42.87
2018-12-27T14:50:08.168Z,44.73
2018-12-27T14:52:37.546Z,41.63
2018-12-27T14:55:07.108Z,46.73
2018-12-27T14:57:36.727Z,43.83
2018-12-27T15:00:09.650Z,42.67
2018-12-27T15:02:39.431Z,45.50
2018-12-27T15:05:10.708Z,43.93
2018-12-27T15:07:40.207Z,43.37
2018-12-27T15:10:10.109Z,40.33
2018-12-27T15:12:39.640Z,41.47
2018-12-27T15:15:09.364Z,40.57
2018-12-27T15:17:38.905Z,47.47
2018-12-27T15:20:08.451Z,42.17
2018-12-27T15:22:39.486Z,45.23
2018-12-27T15:25:08.934Z,43.03
2018-12-27T15:27:38.656Z,46.17
2018-12-27T15:30:08.203Z,42.43
2018-12-27T15:32:37.700Z,40.83
2018-12-27T15:35:07.106Z,45.30
2018-12-27T15:37:36.510Z,45.30
2018-12-27T15:40:06.270Z,42.07
2018-12-27T15:42:35.683Z,45.20
2018-12-27T15:45:05.655Z,42.37
2018-12-27T15:47:35.241Z,40.50
2018-12-27T15:50:05.879Z,39.37
2018-12-27T15:52:35.468Z,42.67
2018-12-27T15:55:05.395Z,37.97
2018-12-27T15:57:36.394Z,42.77
2018-12-27T16:00:08.511Z,38.27
2018-12-27T16:02:38.039Z,40.40
2018-12-27T16:05:07.601Z,37.30
2018-12-27T16:07:37.053Z,40.00
2018-12-27T16:10:06.582Z,38.47
2018-12-27T16:12:37.673Z,39.53
2018-12-27T16:15:07.507Z,40.67
2018-12-27T16:17:36.947Z,37.27
2018-12-27T16:20:06.416Z,35.57
2018-12-27T16:22:35.766Z,37.97
2018-12-27T16:25:05.368Z,43.03
2018-12-27T16:27:34.871Z,40.73
2018-12-27T16:30:07.332Z,38.07
2018-12-27T16:32:37.163Z,37.60
2018-12-27T16:35:19.912Z,37.07
2018-12-27T16:38:02.559Z,36.00
2018-12-27T16:40:32.295Z,35.40
2018-12-27T16:43:01.913Z,37.10
2018-12-27T16:45:31.353Z,37.37
2018-12-27T16:48:00.893Z,37.93
2018-12-27T16:50:30.412Z,36.33
2018-12-27T16:53:00.015Z,40.03
2018-12-27T16:55:29.509Z,34.77
2018-12-27T16:57:58.903Z,36.27
2018-12-27T17:00:28.282Z,34.73
2018-12-27T17:02:57.781Z,33.40
2018-12-27T17:05:27.320Z,32.60
2018-12-27T17:07:57.076Z,32.00
2018-12-27T17:10:26.789Z,30.97
2018-12-27T17:12:56.230Z,35.03
2018-12-27T17:15:25.724Z,31.97
2018-12-27T17:17:55.315Z,33.50
2018-12-27T17:20:24.799Z,30.77
2018-12-27T17:22:54.235Z,35.63
2018-12-27T17:25:23.668Z,32.47
2018-12-27T17:27:53.135Z,31.40
2018-12-27T17:30:22.644Z,32.10
2018-12-27T17:32:52.057Z,30.80
2018-12-27T17:35:21.555Z,31.27
2018-12-27T17:37:51.018Z,33.20
2018-12-27T17:40:20.633Z,35.03
2018-12-27T17:42:50.068Z,32.20
2018-12-27T17:45:19.421Z,32.30
2018-12-27T17:47:48.892Z,30.43
2018-12-27T17:50:18.326Z,29.37
2018-12-27T17:52:47.784Z,31.33
2018-12-27T17:55:17.232Z,29.97
2018-12-27T17:57:46.702Z,32.47
2018-12-27T18:00:16.139Z,29.47
2018-12-27T18:02:45.620Z,26.70
2018-12-27T18:05:14.976Z,26.47
2018-12-27T18:07:44.443Z,28.33
2018-12-27T18:10:13.881Z,31.37
2018-12-27T18:12:43.367Z,30.13
2018-12-27T18:15:12.863Z,28.27
2018-12-27T18:17:43.105Z,29.97
2018-12-27T18:20:12.501Z,27.53
2018-12-27T18:22:41.971Z,28.50
2018-12-27T18:25:12.879Z,31.27
2018-12-27T18:27:42.346Z,32.67
2018-12-27T18:30:11.915Z,29.17
2018-12-27T18:32:41.373Z,27.83
2018-12-27T18:35:10.862Z,31.63
2018-12-27T18:37:40.411Z,28.30
2018-12-27T18:40:09.775Z,28.13
2018-12-27T18:42:40.710Z,30.90
2018-12-27T18:45:10.276Z,31.43
2018-12-27T18:47:39.753Z,28.87
2018-12-27T18:50:09.178Z,29.17
2018-12-27T18:52:38.573Z,29.03
2018-12-27T18:55:07.944Z,28.97
2018-12-27T18:57:37.342Z,32.47
2018-12-27T19:00:09.764Z,26.53
2018-12-27T19:02:42.037Z,28.73
2018-12-27T19:05:10.339Z,27.43
2018-12-27T19:07:44.854Z,27.97
2018-12-27T19:10:12.473Z,28.50
2018-12-27T19:13:04.516Z,29.50
2018-12-27T19:15:43.021Z,28.23
2018-12-27T19:18:18.476Z,29.33
2018-12-27T19:20:51.409Z,28.13
2018-12-27T19:23:20.815Z,30.00
2018-12-27T19:25:51.706Z,28.63
2018-12-27T19:28:21.104Z,28.03
2018-12-27T19:30:50.585Z,27.83
2018-12-27T19:33:20.076Z,28.47
2018-12-27T19:35:49.540Z,29.40
2018-12-27T19:38:19.014Z,28.77
2018-12-27T19:40:48.545Z,29.13
2018-12-27T19:43:17.952Z,29.07
2018-12-27T19:45:47.419Z,27.67
2018-12-27T19:48:16.981Z,27.90
2018-12-27T19:50:46.454Z,28.90
2018-12-27T19:53:16.020Z,31.93
2018-12-27T19:55:45.674Z,25.73
2018-12-27T19:58:15.168Z,27.67
2018-12-27T20:00:46.287Z,26.63
2018-12-27T20:03:15.831Z,31.63
2018-12-27T20:05:45.367Z,29.10
2018-12-27T20:08:14.911Z,29.07
2018-12-27T20:10:44.461Z,29.23
2018-12-27T20:13:13.901Z,26.23
2018-12-27T20:15:43.426Z,30.03
2018-12-27T20:18:12.899Z,31.20
2018-12-27T20:20:42.602Z,30.07
2018-12-27T20:23:12.152Z,29.60
2018-12-27T20:25:41.628Z,27.60
2018-12-27T20:28:11.092Z,29.67
2018-12-27T20:30:40.919Z,28.87
2018-12-27T20:33:10.385Z,27.73
2018-12-27T20:35:39.784Z,28.97
2018-12-27T20:38:09.286Z,30.33
2018-12-27T20:40:38.688Z,27.13
2018-12-27T20:43:08.136Z,29.87
2018-12-27T20:45:37.597Z,28.10
2018-12-27T20:48:07.007Z,28.80
2018-12-27T20:50:36.508Z,28.13
2018-12-27T20:53:05.902Z,27.80
2018-12-27T20:55:35.259Z,28.93
2018-12-27T20:58:04.720Z,26.57
2018-12-27T21:00:34.105Z,29.40
2018-12-27T21:03:03.587Z,25.73
2018-12-27T21:05:33.501Z,26.83
2018-12-27T21:08:03.078Z,30.40
2018-12-27T21:10:32.503Z,29.70
2018-12-27T21:13:02.039Z,28.07
2018-12-27T21:15:31.542Z,29.77
2018-12-27T21:18:01.060Z,27.70
2018-12-27T21:20:30.726Z,28.63
2018-12-27T21:23:00.232Z,33.27
2018-12-27T21:25:29.889Z,27.60
2018-12-27T21:28:01.022Z,31.20
2018-12-27T21:30:30.415Z,28.83
2018-12-27T21:32:59.770Z,30.17
2018-12-27T21:35:29.185Z,27.13
2018-12-27T21:37:58.550Z,32.17
2018-12-27T21:40:28.094Z,26.93
2018-12-27T21:42:57.481Z,30.57
2018-12-27T21:45:27.265Z,29.80
2018-12-27T21:47:56.749Z,30.23
2018-12-27T21:50:26.128Z,32.67
2018-12-27T21:52:55.520Z,29.43
2018-12-27T21:55:24.924Z,29.33
2018-12-27T21:57:54.386Z,27.47
2018-12-27T22:00:23.992Z,30.50
2018-12-27T22:02:53.454Z,28.43
2018-12-27T22:05:22.921Z,30.03
2018-12-27T22:07:52.334Z,27.93
2018-12-27T22:10:21.719Z,28.23
2018-12-27T22:12:51.122Z,29.77
2018-12-27T22:15:20.583Z,28.53
2018-12-27T22:17:50.066Z,29.03
2018-12-27T22:20:19.687Z,32.13
2018-12-27T22:22:49.079Z,27.33
2018-12-27T22:25:18.484Z,28.60
2018-12-27T22:27:49.852Z,30.63
2018-12-27T22:30:19.378Z,29.40
2018-12-27T22:32:48.778Z,26.53
2018-12-27T22:35:18.185Z,33.30
2018-12-27T22:37:47.884Z,28.80
2018-12-27T22:40:17.361Z,29.57
2018-12-27T22:42:46.838Z,30.17
2018-12-27T22:45:16.479Z,29.70
2018-12-27T22:47:45.875Z,29.83
2018-12-27T22:50:15.386Z,34.97
2018-12-27T22:52:44.918Z,33.13
2018-12-27T22:55:14.432Z,31.20
2018-12-27T22:57:43.954Z,27.53
2018-12-27T23:00:18.507Z,31.70
2018-12-27T23:02:47.963Z,26.97
2018-12-27T23:05:17.356Z,29.33
2018-12-27T23:07:46.754Z,32.70
2018-12-27T23:10:16.474Z,27.97
2018-12-27T23:12:45.900Z,32.23
2018-12-27T23:15:15.526Z,32.10
2018-12-27T23:17:44.978Z,30.80
2018-12-27T23:20:14.358Z,30.57
2018-12-27T23:22:43.839Z,30.50
2018-12-27T23:25:13.312Z,32.83
2018-12-27T23:27:42.800Z,33.57
2018-12-27T23:30:12.436Z,30.70
2018-12-27T23:32:41.835Z,33.07
2018-12-27T23:35:11.486Z,32.77
2018-12-27T23:37:41.250Z,30.60
2018-12-27T23:40:10.823Z,32.60
2018-12-27T23:42:40.307Z,32.47
2018-12-27T23:45:09.956Z,32.63
2018-12-27T23:47:39.455Z,37.53
2018-12-27T23:50:09.281Z,32.63
2018-12-27T23:52:38.747Z,35.20
2018-12-27T23:55:08.168Z,38.17
2018-12-27T23:57:39.364Z,43.40
